Time;durP1;ratioP1;P1;durP2;ratioP2;P2;SDS_P1;SDS_P2;PMS_P1;PMS_P2;Temp;Humidity;BMP_temperature;BMP_pressure;BME280_temperature;BME280_humidity;BME280_pressure;Samples;Min_cycle;Max_cycle;Signal;HPM_P1;HPM_P2
2021/01/17 00:00:19;;;;;;;10.27;2.90;;;14.70;99.90;;;;;;5266010;27;20029;-88
2021/01/17 00:02:49;;;;;;;5.47;2.72;;;14.80;99.90;;;;;;5287252;27;20072;-87
2021/01/17 00:05:22;;;;;;;4.93;2.40;;;14.80;99.90;;;;;;5266304;27;20063;-88
2021/01/17 00:07:50;;;;;;;6.28;2.65;;;14.90;99.90;;;;;;5268058;27;20068;-87
2021/01/17 00:10:21;;;;;;;6.07;2.20;;;14.80;99.90;;;;;;5270062;27;20060;-87
2021/01/17 00:12:54;;;;;;;6.25;2.72;;;14.60;99.90;;;;;;5288763;27;20086;-88
2021/01/17 00:15:23;;;;;;;5.78;2.55;;;14.50;99.90;;;;;;5286844;27;20021;-87
2021/01/17 00:17:51;;;;;;;4.28;2.30;;;14.60;99.90;;;;;;5293704;27;20028;-87
2021/01/17 00:20:24;;;;;;;6.37;2.60;;;14.50;99.90;;;;;;5288336;27;20068;-88
2021/01/17 00:22:58;;;;;;;8.88;2.70;;;14.60;99.90;;;;;;5271146;27;20086;-87
2021/01/17 00:25:27;;;;;;;7.55;2.97;;;14.40;99.90;;;;;;5268236;27;20065;-88
2021/01/17 00:28:02;;;;;;;4.30;2.40;;;13.90;99.90;;;;;;5290917;27;20061;-87
2021/01/17 00:30:32;;;;;;;6.75;2.47;;;14.40;99.90;;;;;;5291449;27;20025;-88
2021/01/17 00:33:01;;;;;;;8.07;2.55;;;;;;;;;;5284314;27;20071;-88
2021/01/17 00:35:30;;;;;;;6.57;2.40;;;;;;;;;;5284846;27;20045;-88
2021/01/17 00:38:00;;;;;;;4.45;2.30;;;;;;;;;;5282599;27;20356;-87
2021/01/17 00:40:30;;;;;;;5.53;2.58;;;;;;;;;;5267347;27;20052;-88
2021/01/17 00:42:58;;;;;;;7.68;2.60;;;;;;;;;;5288567;27;20075;-88
2021/01/17 00:45:28;;;;;;;10.05;3.17;;;;;;;;;;5283928;27;20057;-88
2021/01/17 00:47:56;;;;;;;10.18;2.50;;;;;;;;;;5268600;27;20036;-88
2021/01/17 00:50:25;;;;;;;6.82;2.28;;;;;;;;;;5289911;27;20049;-88
2021/01/17 00:52:55;;;;;;;3.53;2.10;;;;;;;;;;5267920;27;20494;-87
2021/01/17 00:55:25;;;;;;;7.93;2.40;;;;;;;;;;5291066;27;20065;-87
2021/01/17 00:57:53;;;;;;;6.37;2.72;;;;;;;;;;5269820;27;20408;-88
2021/01/17 01:00:24;;;;;;;4.00;2.50;;;;;;;;;;5291707;27;20077;-88
2021/01/17 01:02:54;;;;;;;6.00;2.47;;;;;;;;;;5289889;27;20393;-88
2021/01/17 01:05:24;;;;;;;4.55;2.20;;;;;;;;;;5268493;27;20053;-88
2021/01/17 01:07:53;;;;;;;7.70;2.10;;;;;;;;;;5271349;27;20096;-89
2021/01/17 01:10:25;;;;;;;7.75;2.45;;;;;;;;;;5286853;27;20379;-89
2021/01/17 01:12:55;;;;;;;7.07;2.62;;;;;;;;;;5270283;27;20068;-87
2021/01/17 01:15:23;;;;;;;8.38;2.70;;;14.60;99.90;;;;;;5270304;27;20368;-88
2021/01/17 01:17:52;;;;;;;8.02;2.50;;;14.60;99.90;;;;;;5289522;27;20045;-88
2021/01/17 01:20:20;;;;;;;6.62;2.53;;;14.50;99.90;;;;;;5288398;27;20041;-88
2021/01/17 01:22:48;;;;;;;8.50;2.67;;;14.40;99.90;;;;;;5271016;27;20325;-88
2021/01/17 01:35:57;;;;;;;7.30;2.53;;;14.40;99.90;;;;;;5272483;26;20879;-85
2021/01/17 01:38:26;;;;;;;9.57;2.40;;;14.60;99.90;;;;;;5269258;27;20541;-86
2021/01/17 01:40:56;;;;;;;8.55;2.45;;;14.60;99.90;;;;;;5274953;27;20030;-85
2021/01/17 01:43:24;;;;;;;9.10;2.80;;;14.40;99.90;;;;;;5279913;27;20029;-86
2021/01/17 01:45:53;;;;;;;6.35;2.50;;;14.40;99.90;;;;;;5255831;27;20491;-87
2021/01/17 01:48:21;;;;;;;7.85;2.40;;;14.30;99.90;;;;;;5258821;27;20049;-85
2021/01/17 01:50:49;;;;;;;6.32;2.25;;;14.60;99.90;;;;;;5277030;27;20083;-86
2021/01/17 01:53:17;;;;;;;5.93;2.47;;;14.50;99.90;;;;;;5260384;27;20085;-87
2021/01/17 01:55:45;;;;;;;6.35;2.30;;;14.60;99.90;;;;;;5279647;27;20021;-86
2021/01/17 01:58:17;;;;;;;10.18;2.45;;;14.40;99.90;;;;;;5241026;27;20029;-87
2021/01/17 02:00:46;;;;;;;9.25;2.50;;;14.50;99.90;;;;;;5277270;27;20431;-86
2021/01/17 02:03:15;;;;;;;7.85;2.53;;;14.40;99.90;;;;;;5278947;27;20036;-86
2021/01/17 02:05:44;;;;;;;8.65;2.53;;;14.50;99.90;;;;;;5261114;27;20059;-86
2021/01/17 02:08:31;;;;;;;4.80;2.25;;;14.60;99.90;;;;;;5255591;27;20021;-86
2021/01/17 02:11:18;;;;;;;8.50;2.92;;;14.50;99.90;;;;;;5258404;27;20115;-89
2021/01/17 02:13:56;;;;;;;10.18;2.58;;;14.60;99.90;;;;;;5260290;27;20051;-88
2021/01/17 02:16:24;;;;;;;5.72;2.58;;;14.40;99.90;;;;;;5279903;27;20022;-88
2021/01/17 02:18:54;;;;;;;8.40;2.45;;;14.60;99.90;;;;;;5259391;27;20029;-88
2021/01/17 02:21:22;;;;;;;4.97;2.55;;;14.40;99.90;;;;;;5279085;27;20061;-88
2021/01/17 02:24:06;;;;;;;6.50;2.53;;;14.50;99.90;;;;;;5280741;27;20037;-89
2021/01/17 02:26:34;;;;;;;6.28;2.17;;;14.40;99.90;;;;;;5260775;27;20036;-89
2021/01/17 02:29:03;;;;;;;6.75;2.62;;;14.70;99.90;;;;;;5278262;27;20368;-88
2021/01/17 02:31:33;;;;;;;6.85;2.45;;;14.60;99.90;;;;;;5279111;27;20034;-88
2021/01/17 02:34:04;;;;;;;4.85;2.37;;;14.70;99.90;;;;;;5258491;27;20027;-89
2021/01/17 02:36:59;;;;;;;8.20;2.67;;;14.70;99.90;;;;;;5275248;27;20025;-89
2021/01/17 02:39:39;;;;;;;;;;;14.80;99.90;;;;;;5256047;27;20053;-89
2021/01/17 02:42:07;;;;;;;6.03;2.95;;;14.60;99.90;;;;;;5274972;27;19972;-89
2021/01/17 02:44:36;;;;;;;9.82;2.28;;;14.80;99.90;;;;;;5255746;27;20029;-89
2021/01/17 02:47:04;;;;;;;7.22;2.37;;;14.70;99.90;;;;;;5276045;27;20055;-88
2021/01/17 02:49:32;;;;;;;9.52;2.60;;;14.50;99.90;;;;;;5273403;27;20034;-88
2021/01/17 02:52:07;;;;;;;6.45;2.35;;;14.50;99.90;;;;;;5254485;27;20034;-89
2021/01/17 02:54:43;;;;;;;;;;;14.60;99.90;;;;;;5253611;27;20023;-89
2021/01/17 02:57:15;;;;;;;11.18;2.65;;;14.50;99.90;;;;;;5273696;27;19948;-89
2021/01/17 02:59:55;;;;;;;5.35;2.33;;;14.60;99.90;;;;;;5273874;27;20021;-88
2021/01/17 03:02:30;;;;;;;7.65;2.25;;;14.70;99.90;;;;;;5273306;27;20017;-89
2021/01/17 03:05:02;;;;;;;10.43;2.33;;;14.50;99.90;;;;;;5273988;27;20041;-89
2021/01/17 03:07:35;;;;;;;6.62;2.28;;;14.60;99.90;;;;;;5273401;27;20052;-89
2021/01/17 03:13:42;;;;;;;5.95;2.67;;;14.50;99.90;;;;;;5270757;27;20076;-88
2021/01/17 03:16:11;;;;;;;5.68;2.33;;;14.50;99.90;;;;;;5273910;27;20399;-88
2021/01/17 03:18:39;;;;;;;6.03;2.45;;;14.60;99.90;;;;;;5254382;27;20086;-89
2021/01/17 03:21:15;;;;;;;6.53;2.78;;;14.70;99.90;;;;;;5259060;27;20037;31
2021/01/17 03:23:49;;;;;;;7.37;2.28;;;14.50;99.90;;;;;;5184417;27;20030;-86
2021/01/17 03:26:17;;;;;;;8.07;2.53;;;14.70;99.90;;;;;;5170539;27;20081;-90
2021/01/17 03:28:45;;;;;;;5.18;2.50;;;14.60;99.90;;;;;;5170526;27;20027;-87
2021/01/17 03:31:14;;;;;;;4.18;2.22;;;14.50;99.90;;;;;;5187444;27;20073;-87
2021/01/17 03:33:42;;;;;;;8.02;2.30;;;14.30;99.90;;;;;;5188899;27;20106;-89
2021/01/17 03:36:10;;;;;;;5.80;2.42;;;14.50;99.90;;;;;;5164909;27;20227;-91
2021/01/17 03:38:39;;;;;;;9.10;2.40;;;14.50;99.90;;;;;;5171556;27;20043;-92
2021/01/17 03:41:11;;;;;;;5.45;2.65;;;14.50;99.90;;;;;;5190795;27;20023;-90
2021/01/17 03:43:40;;;;;;;7.03;2.35;;;14.30;99.90;;;;;;5189840;27;20030;-91
2021/01/17 03:46:08;;;;;;;6.37;2.40;;;14.50;99.90;;;;;;5172482;27;20049;-93
2021/01/17 03:48:36;;;;;;;4.97;2.20;;;14.70;99.90;;;;;;5169212;27;20033;-89
2021/01/17 03:51:04;;;;;;;6.65;2.45;;;14.70;99.90;;;;;;5169476;27;20062;-90
2021/01/17 03:53:32;;;;;;;7.43;2.55;;;14.90;99.90;;;;;;5169727;27;20037;-87
2021/01/17 03:56:00;;;;;;;4.70;2.30;;;14.60;99.90;;;;;;5191505;27;20022;-86
2021/01/17 03:58:28;;;;;;;11.55;2.45;;;14.70;99.90;;;;;;5188892;27;20035;-87
2021/01/17 04:00:56;;;;;;;9.35;2.30;;;14.80;99.90;;;;;;5170299;27;20058;-90
2021/01/17 04:03:24;;;;;;;5.40;2.42;;;14.50;99.90;;;;;;5170239;27;20425;-90
2021/01/17 04:05:52;;;;;;;5.55;2.53;;;14.60;99.90;;;;;;5171847;27;20026;-88
2021/01/17 04:08:20;;;;;;;7.55;2.70;;;14.50;99.90;;;;;;5154770;27;20030;-90
2021/01/17 04:10:48;;;;;;;7.95;3.10;;;14.70;99.90;;;;;;5170438;27;20046;-86
2021/01/17 04:13:16;;;;;;;6.95;2.50;;;14.70;99.90;;;;;;5189251;27;20042;-94
2021/01/17 04:15:44;;;;;;;9.60;2.75;;;14.80;99.90;;;;;;5187667;27;20480;-90
2021/01/17 04:18:12;;;;;;;8.88;3.12;;;14.60;99.90;;;;;;5170570;27;20575;-86
2021/01/17 04:20:41;;;;;;;6.45;3.10;;;14.80;99.90;;;;;;5171950;27;20023;-89
2021/01/17 04:23:10;;;;;;;9.80;3.22;;;14.90;99.90;;;;;;5185744;27;20031;-92
2021/01/17 04:25:38;;;;;;;6.90;2.90;;;14.90;99.90;;;;;;5167453;27;20444;-89
2021/01/17 04:28:10;;;;;;;12.60;3.22;;;14.80;99.90;;;;;;5190743;27;20378;-86
2021/01/17 04:30:39;;;;;;;6.32;2.97;;;14.90;99.90;;;;;;5188862;27;20041;-88
2021/01/17 04:33:07;;;;;;;5.78;2.92;;;14.80;99.90;;;;;;5153536;27;20401;-91
2021/01/17 04:35:35;;;;;;;7.47;3.30;;;14.60;99.90;;;;;;5168663;27;20035;-92
2021/01/17 04:38:04;;;;;;;8.35;2.90;;;14.70;99.90;;;;;;5170682;27;20580;-87
2021/01/17 04:40:32;;;;;;;6.47;3.25;;;14.70;99.90;;;;;;5154862;27;20042;-88
2021/01/17 04:43:07;;;;;;;8.15;3.22;;;14.60;99.90;;;;;;5187009;27;20042;-94
2021/01/17 04:45:37;;;;;;;13.15;3.47;;;14.90;99.90;;;;;;5167586;27;20430;-89
2021/01/17 04:48:06;;;;;;;7.62;3.10;;;14.70;99.90;;;;;;5170893;27;20086;-88
2021/01/17 04:50:34;;;;;;;10.02;3.20;;;14.70;99.90;;;;;;5171089;27;20406;-91
2021/01/17 04:53:07;;;;;;;8.73;3.30;;;14.80;99.90;;;;;;5191351;27;19999;-86
2021/01/17 04:55:35;;;;;;;8.73;3.35;;;14.70;99.90;;;;;;5185641;27;20053;-90
2021/01/17 04:58:24;;;;;;;10.85;3.33;;;14.90;99.90;;;;;;5172911;27;20040;-92
2021/01/17 05:00:57;;;;;;;6.65;3.12;;;14.90;99.90;;;;;;5170833;27;20070;-95
2021/01/17 05:04:13;;;;;;;7.93;3.03;;;15.00;99.90;;;;;;5184833;27;20082;-92
2021/01/17 05:06:47;;;;;;;4.78;2.40;;;14.80;99.90;;;;;;5170907;27;20046;-88
2021/01/17 05:09:23;;;;;;;6.43;3.15;;;14.60;99.90;;;;;;5172879;27;20110;-88
2021/01/17 05:11:52;;;;;;;7.72;3.08;;;14.50;99.90;;;;;;5171954;27;20028;-91
2021/01/17 05:14:55;;;;;;;4.97;2.70;;;14.70;99.90;;;;;;5173042;27;20393;-88
2021/01/17 05:17:27;;;;;;;5.97;2.50;;;14.70;99.90;;;;;;5130038;27;20068;-88
2021/01/17 05:19:55;;;;;;;8.32;2.40;;;14.50;99.90;;;;;;5171183;27;20027;-90
2021/01/17 05:22:26;;;;;;;8.70;2.40;;;14.80;99.90;;;;;;5188555;27;20420;-91
2021/01/17 05:24:55;;;;;;;5.32;2.50;;;14.60;99.90;;;;;;5167495;27;20085;-89
2021/01/17 05:27:24;;;;;;;7.37;2.60;;;14.70;99.90;;;;;;5170760;27;20074;-93
2021/01/17 05:29:52;;;;;;;10.35;2.50;;;14.80;99.90;;;;;;5168841;27;20062;-90
2021/01/17 05:32:22;;;;;;;6.50;2.30;;;14.70;99.90;;;;;;5170723;27;20031;-92
2021/01/17 05:34:52;;;;;;;10.80;2.40;;;14.70;99.90;;;;;;5168073;27;20006;-89
2021/01/17 05:37:20;;;;;;;6.80;2.72;;;14.80;99.90;;;;;;5186900;27;20034;-89
2021/01/17 05:40:00;;;;;;;6.45;2.50;;;14.80;99.90;;;;;;5170964;27;20505;-91
2021/01/17 05:42:29;;;;;;;7.10;2.35;;;14.90;99.90;;;;;;5189198;27;20036;-91
2021/01/17 05:45:23;;;;;;;7.50;2.30;;;15.00;99.90;;;;;;5184777;27;20054;-89
2021/01/17 05:48:00;;;;;;;9.68;3.05;;;14.70;99.90;;;;;;5170320;27;20332;-90
2021/01/17 05:50:29;;;;;;;10.70;2.53;;;14.80;99.90;;;;;;5170768;27;20034;-91
2021/01/17 05:53:05;;;;;;;6.47;2.78;;;14.90;99.90;;;;;;5167555;27;20038;-90
2021/01/17 05:55:39;;;;;;;7.75;2.72;;;14.70;99.90;;;;;;5188976;27;20034;-90
2021/01/17 05:58:28;;;;;;;7.87;2.58;;;14.90;99.90;;;;;;5171374;27;20073;-90
2021/01/17 06:00:58;;;;;;;7.05;2.67;;;15.10;99.90;;;;;;5173381;27;20462;-89
2021/01/17 06:03:32;;;;;;;10.75;2.55;;;14.80;99.90;;;;;;5172434;27;20039;-90
2021/01/17 06:06:02;;;;;;;7.30;2.70;;;15.00;99.90;;;;;;5190600;27;20023;-91
2021/01/17 06:08:31;;;;;;;4.03;2.35;;;15.10;99.90;;;;;;5172988;27;20024;-89
2021/01/17 06:11:10;;;;;;;17.15;2.70;;;14.90;99.90;;;;;;5189146;27;20027;-93
2021/01/17 06:13:42;;;;;;;6.15;2.72;;;15.00;99.90;;;;;;5169548;27;20378;-88
2021/01/17 06:16:37;;;;;;;9.40;3.00;;;14.90;99.90;;;;;;5189737;27;20042;-90
2021/01/17 06:19:07;;;;;;;4.90;2.53;;;14.90;99.90;;;;;;5190340;27;20006;-88
2021/01/17 06:21:37;;;;;;;8.80;2.60;;;15.00;99.90;;;;;;5169829;27;20066;-88
2021/01/17 06:24:08;;;;;;;4.35;2.90;;;14.80;99.90;;;;;;5167042;27;20081;-92
2021/01/17 06:26:39;;;;;;;6.50;2.62;;;15.00;99.90;;;;;;5190065;27;20334;-91
2021/01/17 06:29:12;;;;;;;7.97;2.75;;;14.80;99.90;;;;;;5186453;27;20418;-87
2021/01/17 06:31:40;;;;;;;6.93;2.37;;;15.10;99.90;;;;;;5194822;27;20450;-91
2021/01/17 06:34:13;;;;;;;8.98;2.87;;;15.00;99.90;;;;;;5168925;27;20030;-90
2021/01/17 06:36:46;;;;;;;7.03;3.25;;;15.00;99.90;;;;;;5190079;27;20062;-92
2021/01/17 06:39:25;;;;;;;6.25;2.40;;;15.00;99.90;;;;;;5191370;27;20075;-89
2021/01/17 06:41:59;;;;;;;6.47;3.00;;;14.90;99.90;;;;;;5171820;27;20006;-89
2021/01/17 06:44:34;;;;;;;7.50;3.05;;;15.00;99.90;;;;;;5192863;27;20467;-89
2021/01/17 06:47:02;;;;;;;7.03;2.75;;;15.20;99.90;;;;;;5191272;27;20023;-91
2021/01/17 06:49:33;;;;;;;9.02;2.97;;;15.10;99.90;;;;;;5190971;27;20007;-87
2021/01/17 06:52:05;;;;;;;14.70;3.10;;;15.00;99.90;;;;;;5171880;27;20502;-90
2021/01/17 06:54:46;;;;;;;6.18;2.65;;;15.10;99.90;;;;;;5191847;27;20061;-88
2021/01/17 06:57:16;;;;;;;6.82;2.80;;;15.20;99.90;;;;;;5171489;27;20061;-88
2021/01/17 06:59:46;;;;;;;9.88;3.00;;;15.10;99.90;;;;;;5174585;27;20043;-90
2021/01/17 07:02:14;;;;;;;8.38;2.75;;;15.00;99.90;;;;;;5186181;27;20030;-88
2021/01/17 07:05:06;;;;;;;8.73;2.58;;;15.10;99.90;;;;;;5156678;27;20022;-93
2021/01/17 07:08:03;;;;;;;6.50;3.20;;;15.00;99.90;;;;;;5171662;27;20115;-90
2021/01/17 07:10:41;;;;;;;6.82;3.22;;;14.90;99.90;;;;;;5154680;27;20062;-90
2021/01/17 07:13:13;;;;;;;5.55;2.90;;;15.00;99.90;;;;;;5172796;27;20410;-89
2021/01/17 07:15:42;;;;;;;6.95;3.35;;;15.10;99.90;;;;;;5172567;27;20031;-90
2021/01/17 07:18:13;;;;;;;11.18;3.72;;;15.10;99.90;;;;;;5171830;27;20041;-88
2021/01/17 07:20:43;;;;;;;9.13;3.47;;;15.10;99.90;;;;;;5171608;27;20030;-88
2021/01/17 07:23:16;;;;;;;6.75;3.50;;;15.10;99.90;;;;;;5149302;27;20030;-93
2021/01/17 07:25:45;;;;;;;5.68;3.00;;;14.80;99.90;;;;;;5167616;27;20023;-90
2021/01/17 07:28:15;;;;;;;8.63;3.50;;;15.00;99.90;;;;;;5151000;27;20047;-86
2021/01/17 07:31:00;;;;;;;10.05;3.35;;;15.10;99.90;;;;;;5151214;27;20059;-92
2021/01/17 07:33:31;;;;;;;10.57;3.37;;;15.10;99.90;;;;;;5167488;27;20028;-89
2021/01/17 07:36:01;;;;;;;11.52;4.03;;;15.20;99.90;;;;;;5168170;27;20033;-91
2021/01/17 07:38:35;;;;;;;10.32;4.10;;;14.80;99.90;;;;;;5185799;27;20030;-92
2021/01/17 07:41:11;;;;;;;14.35;4.03;;;14.90;99.90;;;;;;5170592;27;20016;-90
2021/01/17 07:43:42;;;;;;;9.35;3.62;;;15.00;99.90;;;;;;5170088;27;20042;-89
2021/01/17 07:46:18;;;;;;;13.77;4.22;;;15.30;99.90;;;;;;5168518;27;20449;-87
2021/01/17 07:48:48;;;;;;;14.77;5.25;;;15.10;99.90;;;;;;5168628;27;20023;-87
2021/01/17 07:51:16;;;;;;;11.12;3.65;;;15.40;99.90;;;;;;5149146;27;20023;-92
2021/01/17 07:54:17;;;;;;;9.35;3.92;;;15.10;99.90;;;;;;5167289;27;20062;-90
2021/01/17 07:56:47;;;;;;;14.73;4.03;;;15.30;99.90;;;;;;5166632;27;20774;-93
2021/01/17 07:59:24;;;;;;;8.40;4.15;;;15.20;99.90;;;;;;5164513;27;20060;-89
2021/01/17 08:01:53;;;;;;;8.07;4.35;;;15.20;99.90;;;;;;5167999;27;20438;-89
2021/01/17 08:04:22;;;;;;;12.23;4.85;;;15.00;99.90;;;;;;5149379;27;20038;-91
2021/01/17 08:06:51;;;;;;;11.77;4.70;;;15.10;99.90;;;;;;5166316;27;20037;-90
2021/01/17 08:09:39;;;;;;;12.37;4.70;;;15.00;99.90;;;;;;5170308;27;20031;-89
2021/01/17 08:12:29;;;;;;;10.63;4.78;;;15.20;99.90;;;;;;5153163;27;20406;-89
2021/01/17 08:15:32;;;;;;;12.52;4.87;;;15.10;99.90;;;;;;5149421;27;20043;-87
2021/01/17 08:18:01;;;;;;;9.13;4.78;;;15.20;99.90;;;;;;5103783;28;20036;-90
2021/01/17 08:20:31;;;;;;;15.52;5.47;;;15.30;99.90;;;;;;5167736;27;20062;-89
2021/01/17 08:23:05;;;;;;;9.57;5.50;;;15.50;99.90;;;;;;5166427;27;20059;-87
2021/01/17 08:25:51;;;;;;;10.63;5.25;;;15.40;99.90;;;;;;5162542;27;20509;-93
2021/01/17 08:28:33;;;;;;;13.48;5.18;;;15.70;99.90;;;;;;5170077;27;20480;-90
2021/01/17 08:31:34;;;;;;;10.93;5.30;;;15.90;99.90;;;;;;5169043;27;20026;-89
2021/01/17 08:34:11;;;;;;;8.75;4.55;;;17.40;99.90;;;;;;5162268;27;20027;-88
2021/01/17 08:36:40;;;;;;;11.80;7.43;;;17.90;99.90;;;;;;5170221;27;20031;-89
2021/01/17 08:39:09;;;;;;;12.35;5.37;;;17.50;99.90;;;;;;5150500;27;20054;-92
2021/01/17 08:41:44;;;;;;;11.23;5.60;;;19.40;99.90;;;;;;5147389;27;20059;-88
2021/01/17 08:44:14;;;;;;;8.18;7.28;;;21.50;99.90;;;;;;5144642;27;20059;-91
2021/01/17 08:46:43;;;;;;;11.68;4.53;;;22.70;98.10;;;;;;5131822;27;20047;-87
2021/01/17 08:49:36;;;;;;;8.70;4.68;;;24.20;96.70;;;;;;5150664;27;20023;-89
2021/01/17 08:52:04;;;;;;;7.87;6.22;;;25.00;95.50;;;;;;5131173;27;20112;-91
2021/01/17 08:54:47;;;;;;;7.07;5.35;;;26.20;94.40;;;;;;5149944;27;20004;-87
2021/01/17 08:57:43;;;;;;;7.12;6.05;;;26.00;94.80;;;;;;5129467;27;20036;-89
2021/01/17 09:00:15;;;;;;;8.57;6.15;;;26.60;94.50;;;;;;5146830;27;20015;-90
2021/01/17 09:02:44;;;;;;;10.57;9.67;;;25.90;92.70;;;;;;5140374;27;20028;-89
2021/01/17 09:05:19;;;;;;;11.32;10.23;;;25.50;93.40;;;;;;5129590;27;20051;-88
2021/01/17 09:07:48;;;;;;;12.93;11.90;;;25.40;92.40;;;;;;5147611;27;20020;-89
2021/01/17 09:10:17;;;;;;;10.15;9.15;;;26.30;93.20;;;;;;5144968;27;20063;-91
2021/01/17 09:12:45;;;;;;;10.50;9.65;;;27.00;93.00;;;;;;5147378;27;20059;-86
2021/01/17 09:15:20;;;;;;;9.23;8.45;;;26.80;92.40;;;;;;5146720;27;20441;-90
2021/01/17 09:18:01;;;;;;;1.52;1.23;;;28.00;90.70;;;;;;5148653;27;20055;-86
2021/01/17 09:20:29;;;;;;;6.43;1.67;;;28.30;87.60;;;;;;5146281;27;20059;-88
2021/01/17 09:23:03;;;;;;;2.28;1.42;;;28.60;84.90;;;;;;5143007;27;20051;-86
2021/01/17 09:25:31;;;;;;;7.37;2.90;;;28.60;83.10;;;;;;5124963;27;20144;-87
2021/01/17 09:27:59;;;;;;;15.07;4.30;;;29.10;81.70;;;;;;5168701;27;20088;-92
2021/01/17 09:30:27;;;;;;;5.20;2.17;;;29.10;81.70;;;;;;5168762;27;20057;-91
2021/01/17 09:32:58;;;;;;;1.98;1.50;;;28.70;80.30;;;;;;5145802;27;20031;-89
2021/01/17 09:35:26;;;;;;;5.25;1.58;;;29.00;79.10;;;;;;5133787;27;20078;-89
2021/01/17 09:37:58;;;;;;;2.67;1.12;;;28.40;80.60;;;;;;5133178;27;20040;-88
2021/01/17 09:40:27;;;;;;;13.90;3.20;;;28.20;80.70;;;;;;5170278;27;20027;-91
2021/01/17 09:43:01;;;;;;;3.37;1.87;;;28.80;82.10;;;;;;5162666;27;20472;-86
2021/01/17 09:45:29;;;;;;;2.37;1.75;;;28.70;82.70;;;;;;5149949;27;20346;-89
2021/01/17 09:47:58;;;;;;;48.95;4.85;;;30.20;80.00;;;;;;5151279;27;20047;-91
2021/01/17 09:50:36;;;;;;;17.35;5.50;;;30.90;79.20;;;;;;5149976;27;20020;-89
2021/01/17 09:53:08;;;;;;;43.63;40.47;;;31.50;80.30;;;;;;5151579;27;20099;-90
2021/01/17 09:55:39;;;;;;;27.67;25.70;;;31.10;71.10;;;;;;5165722;27;20048;-93
2021/01/17 09:58:14;;;;;;;38.83;36.40;;;32.00;70.90;;;;;;5152833;27;20027;-91
2021/01/17 10:00:43;;;;;;;84.72;79.40;;;31.10;70.10;;;;;;5153893;27;20022;-88
2021/01/17 10:03:14;;;;;;;42.13;39.45;;;30.40;70.70;;;;;;5149601;27;20023;-88
2021/01/17 10:05:44;;;;;;;70.60;65.93;;;31.80;70.40;;;;;;5170606;27;20030;-88
2021/01/17 10:08:14;;;;;;;30.58;28.67;;;31.20;69.30;;;;;;5167552;27;20019;-88
2021/01/17 10:10:49;;;;;;;61.78;58.05;;;32.60;68.40;;;;;;5152384;27;20041;-91
2021/01/17 10:13:17;;;;;;;21.83;20.48;;;31.30;68.00;;;;;;5152995;27;20054;-89
2021/01/17 10:15:47;;;;;;;20.58;19.27;;;32.60;69.00;;;;;;5134044;27;20063;-88
2021/01/17 10:18:23;;;;;;;21.50;19.62;;;34.30;66.90;;;;;;5146287;27;20060;-91
2021/01/17 10:20:56;;;;;;;54.92;51.63;;;35.00;66.30;;;;;;5165692;27;20031;-92
2021/01/17 10:23:30;;;;;;;16.10;14.95;;;33.10;66.50;;;;;;5148767;27;20050;-89
2021/01/17 10:25:59;;;;;;;24.92;23.35;;;33.30;68.20;;;;;;5168226;27;20397;-88
2021/01/17 10:28:27;;;;;;;46.13;43.38;;;34.40;67.50;;;;;;5168349;27;20037;-91
2021/01/17 10:31:01;;;;;;;24.65;22.95;;;32.00;69.10;;;;;;5171521;27;20051;-88
2021/01/17 10:33:31;;;;;;;23.48;22.08;;;32.50;70.10;;;;;;5166892;27;20325;-89
2021/01/17 10:36:00;;;;;;;36.95;34.50;;;33.70;72.10;;;;;;5144268;27;20086;-90
2021/01/17 10:38:28;;;;;;;9.93;5.72;;;33.10;69.40;;;;;;5166532;27;20036;-89
2021/01/17 10:40:56;;;;;;;13.32;5.07;;;30.30;73.70;;;;;;5151115;27;20441;-90
2021/01/17 10:43:36;;;;;;;18.42;16.83;;;26.80;78.90;;;;;;5167712;27;20038;-90
2021/01/17 10:46:06;;;;;;;7.90;4.35;;;;;;;;;;5171451;27;20062;-90
2021/01/17 10:48:46;;;;;;;66.22;62.45;;;28.30;81.70;;;;;;5151223;27;20031;-90
2021/01/17 10:51:24;;;;;;;30.12;28.38;;;;;;;;;;5151976;27;20043;-89
2021/01/17 10:53:54;;;;;;;159.57;15.93;;;28.80;80.30;;;;;;5166627;27;20098;-92
2021/01/17 10:56:23;;;;;;;30.83;3.12;;;;;;;;;;5152014;27;20363;-89
2021/01/17 10:58:52;;;;;;;8.50;5.68;;;26.60;56.40;;;;;;5169350;27;20045;-86
2021/01/17 11:01:29;;;;;;;9.82;5.80;;;26.40;57.10;;;;;;5134192;27;20023;-94
2021/01/17 11:04:00;;;;;;;8.32;4.80;;;24.80;62.80;;;;;;5150184;27;20027;-91
2021/01/17 11:06:29;;;;;;;7.85;5.07;;;23.70;66.60;;;;;;5170913;27;20314;-87
2021/01/17 11:08:59;;;;;;;6.47;5.00;;;23.90;69.20;;;;;;5149713;27;20311;-89
2021/01/17 11:11:29;;;;;;;15.45;8.65;;;24.40;67.60;;;;;;5163247;27;20038;-90
2021/01/17 11:13:59;;;;;;;9.55;8.65;;;24.50;67.80;;;;;;5149087;27;20038;-86
2021/01/17 11:16:39;;;;;;;27.17;25.20;;;26.70;64.50;;;;;;5169967;27;20062;-93
2021/01/17 11:19:12;;;;;;;34.53;32.08;;;28.80;60.00;;;;;;5149031;27;20020;-87
2021/01/17 11:21:42;;;;;;;46.23;43.20;;;31.30;56.30;;;;;;5151840;27;20137;-91
2021/01/17 11:24:11;;;;;;;27.33;25.50;;;33.20;52.90;;;;;;5161034;27;20563;-90
2021/01/17 11:26:39;;;;;;;43.20;40.22;;;33.20;52.00;;;;;;5148602;27;20438;-94
2021/01/17 11:29:16;;;;;;;156.37;146.32;;;32.40;50.70;;;;;;5147640;27;20391;-89
2021/01/17 11:31:46;;;;;;;143.57;134.65;;;28.60;53.30;;;;;;5153277;27;20027;-94
2021/01/17 11:34:17;;;;;;;171.48;160.63;;;27.40;54.60;;;;;;5145476;27;20798;-89
2021/01/17 11:36:56;;;;;;;47.45;44.42;;;27.30;56.30;;;;;;5149609;27;20059;-90
2021/01/17 11:39:24;;;;;;;86.18;81.20;;;28.90;55.60;;;;;;5148723;27;20024;-88
2021/01/17 11:41:55;;;;;;;61.17;57.25;;;29.80;54.50;;;;;;5131462;27;20063;-93
2021/01/17 11:44:34;;;;;;;19.40;17.77;;;30.40;53.40;;;;;;5127385;27;20035;-90
2021/01/17 11:47:03;;;;;;;9.80;7.95;;;29.40;52.90;;;;;;5131604;27;20025;-86
2021/01/17 11:49:32;;;;;;;22.25;20.45;;;27.30;57.10;;;;;;5147192;27;20356;-91
2021/01/17 11:52:12;;;;;;;46.22;43.15;;;28.10;57.80;;;;;;5147026;27;20004;-87
2021/01/17 11:54:41;;;;;;;12.15;10.88;;;29.80;54.50;;;;;;5127393;27;20062;-89
2021/01/17 11:57:10;;;;;;;14.45;13.25;;;31.00;52.70;;;;;;5143574;27;20063;-90
2021/01/17 11:59:38;;;;;;;10.38;6.55;;;31.90;52.40;;;;;;5143318;27;20040;-89
2021/01/17 12:02:17;;;;;;;14.98;10.35;;;29.90;53.10;;;;;;5124803;27;20470;-89
2021/01/17 12:04:54;;;;;;;320.42;106.80;;;28.40;54.30;;;;;;5144933;27;20075;-87
2021/01/17 12:07:22;;;;;;;551.83;201.98;;;28.20;56.90;;;;;;5145123;27;20063;-86
2021/01/17 12:10:04;;;;;;;12.23;8.02;;;29.50;54.70;;;;;;5143378;27;20332;-88
2021/01/17 12:12:36;;;;;;;78.55;70.53;;;31.20;52.40;;;;;;5144443;27;20032;-89
2021/01/17 12:15:07;;;;;;;535.15;241.07;;;31.50;51.60;;;;;;5142180;27;20087;-88
2021/01/17 12:17:36;;;;;;;12.88;7.30;;;32.70;51.10;;;;;;5145199;27;20225;-90
2021/01/17 12:20:06;;;;;;;13.60;4.90;;;33.10;48.80;;;;;;5141455;27;20447;-90
2021/01/17 12:22:34;;;;;;;27.42;22.55;;;34.50;48.90;;;;;;5143512;27;20095;-86
2021/01/17 12:25:02;;;;;;;338.75;227.10;;;33.30;47.40;;;;;;5126454;27;20067;-87
2021/01/17 12:27:30;;;;;;;166.65;114.15;;;32.10;47.10;;;;;;5145250;27;20031;-91
2021/01/17 12:29:58;;;;;;;88.22;54.17;;;31.50;48.50;;;;;;5145810;27;20034;-90
2021/01/17 12:32:26;;;;;;;39.38;22.15;;;31.60;50.20;;;;;;5148499;27;20032;-89
2021/01/17 12:34:54;;;;;;;42.10;25.12;;;27.80;52.80;;;;;;5144112;27;20059;-89
2021/01/17 12:37:22;;;;;;;39.70;22.13;;;26.10;57.50;;;;;;5145979;27;20028;-89
2021/01/17 12:39:50;;;;;;;41.47;19.48;;;26.10;59.70;;;;;;5130922;27;20028;-91
2021/01/17 12:42:21;;;;;;;31.33;13.88;;;25.50;59.40;;;;;;5146228;27;20063;-89
2021/01/17 12:44:49;;;;;;;9.85;5.07;;;25.40;60.60;;;;;;5145681;27;20039;-91
2021/01/17 12:47:17;;;;;;;32.40;28.95;;;24.90;62.00;;;;;;5148634;27;20027;-90
2021/01/17 12:49:45;;;;;;;82.95;42.60;;;26.20;60.40;;;;;;5145744;27;20002;-90
2021/01/17 12:52:13;;;;;;;50.50;26.00;;;26.60;59.60;;;;;;5135010;27;20035;-88
2021/01/17 12:54:41;;;;;;;145.77;65.53;;;27.80;58.90;;;;;;5146253;27;20000;-87
2021/01/17 12:57:09;;;;;;;19.15;7.90;;;27.10;58.30;;;;;;5151130;27;20031;-90
2021/01/17 12:59:38;;;;;;;47.60;21.77;;;25.50;59.70;;;;;;5128121;27;20086;-91
2021/01/17 13:02:07;;;;;;;12.20;6.47;;;24.60;63.80;;;;;;5130507;27;20028;-87
2021/01/17 13:04:35;;;;;;;7.53;4.65;;;23.90;65.10;;;;;;5149144;27;20073;-89
2021/01/17 13:07:04;;;;;;;10.25;4.35;;;23.90;65.90;;;;;;5129465;27;20506;-89
2021/01/17 13:09:32;;;;;;;7.57;4.40;;;24.20;65.60;;;;;;5125820;27;20079;-88
2021/01/17 13:12:06;;;;;;;6.82;4.05;;;24.20;66.30;;;;;;5146065;27;20079;-88
2021/01/17 13:14:42;;;;;;;9.63;4.70;;;24.60;64.90;;;;;;5144054;27;20054;-88
2021/01/17 13:17:11;;;;;;;13.27;4.57;;;24.40;66.20;;;;;;5148568;27;20004;-90
2021/01/17 13:19:39;;;;;;;19.20;7.05;;;23.90;68.50;;;;;;5143965;27;20416;-89
2021/01/17 13:22:07;;;;;;;7.53;4.25;;;22.70;72.40;;;;;;5126341;27;20052;-90
2021/01/17 13:24:35;;;;;;;8.65;5.90;;;21.80;78.50;;;;;;5145661;27;20073;-86
2021/01/17 13:27:06;;;;;;;8.02;4.05;;;22.30;80.10;;;;;;5129917;27;20082;-87